SHT21B EGJB-EGLL
Flight info
| Callsign | SHT21B |
|---|---|
| Flight time | 0h 34m |
| Altitude | 19000 |
| Route | ORIST L982 ROXOG |
| Aircraft | A319/M-SDE3FGIJ1KRWXY/LB1 |
Departure
| Time | 2026-05-05 11:19 |
|---|---|
| Airport | Guernsey Airport (EGJB) |
Arrival
| Time | 2026-05-05 11:54 |
|---|---|
| Airport | London Heathrow Airport (EGLL) |
| Time | Latitude | Longitude | Altitude | Speed | Heading |
|---|---|---|---|---|---|
| 2026-05-05 11:07 | 49.43254 | -2.59620 | 324 ft | 0 kts | 178° |
| 2026-05-05 11:12 | 49.43272 | -2.59621 | 324 ft | 4 kts | 178° |
| 2026-05-05 11:12 | 49.43299 | -2.59622 | 326 ft | 4 kts | 178° |
| 2026-05-05 11:12 | 49.43320 | -2.59623 | 327 ft | 4 kts | 178° |
| 2026-05-05 11:13 | 49.43344 | -2.59623 | 325 ft | 4 kts | 198° |
| 2026-05-05 11:13 | 49.43361 | -2.59601 | 326 ft | 4 kts | 257° |
| 2026-05-05 11:13 | 49.43364 | -2.59562 | 327 ft | 2 kts | 268° |
| 2026-05-05 11:13 | 49.43364 | -2.59559 | 327 ft | 0 kts | 267° |
| 2026-05-05 11:16 | 49.43363 | -2.59565 | 327 ft | 3 kts | 267° |
| 2026-05-05 11:16 | 49.43361 | -2.59644 | 327 ft | 11 kts | 266° |
| 2026-05-05 11:16 | 49.43346 | -2.59800 | 326 ft | 18 kts | 264° |
| 2026-05-05 11:16 | 49.43336 | -2.60022 | 313 ft | 24 kts | 270° |
| 2026-05-05 11:17 | 49.43333 | -2.60246 | 297 ft | 21 kts | 268° |
| 2026-05-05 11:17 | 49.43328 | -2.60457 | 295 ft | 14 kts | 267° |
| 2026-05-05 11:17 | 49.43331 | -2.60633 | 295 ft | 18 kts | 276° |
| 2026-05-05 11:17 | 49.43354 | -2.60833 | 305 ft | 19 kts | 281° |
| 2026-05-05 11:18 | 49.43363 | -2.61014 | 311 ft | 18 kts | 268° |
| 2026-05-05 11:18 | 49.43361 | -2.61117 | 312 ft | 17 kts | 268° |
| 2026-05-05 11:18 | 49.43360 | -2.61225 | 313 ft | 10 kts | 277° |
| 2026-05-05 11:18 | 49.43404 | -2.61327 | 316 ft | 13 kts | 319° |
| 2026-05-05 11:19 | 49.43470 | -2.61299 | 316 ft | 15 kts | 86° |
| 2026-05-05 11:19 | 49.43476 | -2.61035 | 312 ft | 57 kts | 88° |
| 2026-05-05 11:19 | 49.43505 | -2.59896 | 355 ft | 147 kts | 85° |
| 2026-05-05 11:19 | 49.43522 | -2.58342 | 1375 ft | 140 kts | 84° |
| 2026-05-05 11:20 | 49.43562 | -2.56855 | 2215 ft | 145 kts | 82° |
| 2026-05-05 11:20 | 49.43618 | -2.55194 | 2683 ft | 167 kts | 82° |
| 2026-05-05 11:20 | 49.43682 | -2.53287 | 3105 ft | 189 kts | 83° |
| 2026-05-05 11:20 | 49.43773 | -2.51215 | 3677 ft | 197 kts | 77° |
| 2026-05-05 11:21 | 49.44388 | -2.49379 | 4349 ft | 196 kts | 45° |
| 2026-05-05 11:21 | 49.45585 | -2.48375 | 4970 ft | 205 kts | 15° |
| 2026-05-05 11:21 | 49.47020 | -2.47939 | 5779 ft | 212 kts | 14° |
| 2026-05-05 11:21 | 49.48463 | -2.47397 | 6730 ft | 221 kts | 16° |
| 2026-05-05 11:22 | 49.50030 | -2.46773 | 7276 ft | 245 kts | 16° |
| 2026-05-05 11:22 | 49.51745 | -2.46090 | 7910 ft | 262 kts | 15° |
| 2026-05-05 11:22 | 49.53537 | -2.45387 | 8723 ft | 268 kts | 15° |
| 2026-05-05 11:22 | 49.55355 | -2.44679 | 9601 ft | 272 kts | 15° |
| 2026-05-05 11:23 | 49.57208 | -2.43967 | 10352 ft | 277 kts | 14° |
| 2026-05-05 11:23 | 49.59092 | -2.43246 | 11099 ft | 280 kts | 14° |
| 2026-05-05 11:23 | 49.60991 | -2.42524 | 11848 ft | 282 kts | 14° |
| 2026-05-05 11:23 | 49.62912 | -2.41793 | 12539 ft | 286 kts | 14° |
| 2026-05-05 11:24 | 49.64855 | -2.41052 | 13236 ft | 289 kts | 14° |
| 2026-05-05 11:24 | 49.66818 | -2.40300 | 13922 ft | 292 kts | 14° |
| 2026-05-05 11:24 | 49.68772 | -2.39408 | 14494 ft | 295 kts | 22° |
| 2026-05-05 11:24 | 49.70577 | -2.37860 | 14998 ft | 301 kts | 35° |
| 2026-05-05 11:25 | 49.72154 | -2.35602 | 15112 ft | 318 kts | 49° |
| 2026-05-05 11:25 | 49.73607 | -2.32932 | 15242 ft | 330 kts | 49° |
| 2026-05-05 11:25 | 49.75094 | -2.30207 | 15743 ft | 325 kts | 49° |
| 2026-05-05 11:25 | 49.76507 | -2.27623 | 16901 ft | 304 kts | 50° |
| 2026-05-05 11:26 | 49.77889 | -2.25099 | 17683 ft | 318 kts | 51° |
| 2026-05-05 11:26 | 49.79369 | -2.22392 | 18082 ft | 341 kts | 51° |
| 2026-05-05 11:26 | 49.80917 | -2.19564 | 18647 ft | 354 kts | 51° |
| 2026-05-05 11:26 | 49.82524 | -2.16630 | 18902 ft | 358 kts | 51° |
| 2026-05-05 11:27 | 49.84139 | -2.13688 | 18969 ft | 358 kts | 51° |
| 2026-05-05 11:27 | 49.85752 | -2.10746 | 18977 ft | 356 kts | 51° |
| 2026-05-05 11:27 | 49.87353 | -2.07818 | 18978 ft | 356 kts | 51° |
| 2026-05-05 11:27 | 49.88955 | -2.04882 | 18979 ft | 356 kts | 51° |
| 2026-05-05 11:28 | 49.90556 | -2.01945 | 18979 ft | 356 kts | 51° |
| 2026-05-05 11:28 | 49.92155 | -1.99007 | 18978 ft | 357 kts | 51° |
| 2026-05-05 11:28 | 49.93753 | -1.96060 | 18980 ft | 356 kts | 51° |
| 2026-05-05 11:28 | 49.95325 | -1.93152 | 18980 ft | 357 kts | 51° |
| 2026-05-05 11:29 | 49.96922 | -1.90203 | 18985 ft | 357 kts | 51° |
| 2026-05-05 11:29 | 49.98520 | -1.87260 | 18982 ft | 357 kts | 50° |
| 2026-05-05 11:29 | 50.00334 | -1.84609 | 18981 ft | 358 kts | 39° |
| 2026-05-05 11:29 | 50.02445 | -1.82554 | 18981 ft | 360 kts | 28° |
| 2026-05-05 11:30 | 50.04683 | -1.80799 | 18979 ft | 360 kts | 28° |
| 2026-05-05 11:30 | 50.06915 | -1.79043 | 18985 ft | 360 kts | 28° |
| 2026-05-05 11:30 | 50.09147 | -1.77284 | 18987 ft | 360 kts | 28° |
| 2026-05-05 11:30 | 50.11378 | -1.75511 | 18990 ft | 359 kts | 29° |
| 2026-05-05 11:31 | 50.13450 | -1.73358 | 18992 ft | 358 kts | 40° |
| 2026-05-05 11:31 | 50.15364 | -1.70862 | 18993 ft | 358 kts | 41° |
| 2026-05-05 11:31 | 50.17271 | -1.68371 | 18992 ft | 358 kts | 40° |
| 2026-05-05 11:31 | 50.19183 | -1.65883 | 18985 ft | 358 kts | 40° |
| 2026-05-05 11:32 | 50.21146 | -1.63499 | 18979 ft | 358 kts | 32° |
| 2026-05-05 11:32 | 50.23348 | -1.61664 | 18976 ft | 359 kts | 28° |
| 2026-05-05 11:32 | 50.25569 | -1.59875 | 18975 ft | 359 kts | 28° |
| 2026-05-05 11:32 | 50.27755 | -1.58114 | 18832 ft | 355 kts | 28° |
| 2026-05-05 11:33 | 50.29936 | -1.56353 | 18592 ft | 350 kts | 28° |
| 2026-05-05 11:33 | 50.32091 | -1.54612 | 18353 ft | 348 kts | 28° |
| 2026-05-05 11:33 | 50.34242 | -1.52872 | 18098 ft | 346 kts | 28° |
| 2026-05-05 11:33 | 50.36376 | -1.51142 | 17820 ft | 344 kts | 28° |
| 2026-05-05 11:34 | 50.38501 | -1.49426 | 17550 ft | 343 kts | 27° |
| 2026-05-05 11:34 | 50.40609 | -1.47723 | 17287 ft | 340 kts | 28° |
| 2026-05-05 11:34 | 50.42705 | -1.46021 | 17019 ft | 339 kts | 27° |
| 2026-05-05 11:34 | 50.44797 | -1.44319 | 16754 ft | 338 kts | 27° |
| 2026-05-05 11:35 | 50.46878 | -1.42630 | 16491 ft | 336 kts | 27° |
| 2026-05-05 11:35 | 50.48952 | -1.40945 | 16234 ft | 334 kts | 27° |
| 2026-05-05 11:35 | 50.51008 | -1.39276 | 15983 ft | 331 kts | 27° |
| 2026-05-05 11:35 | 50.53050 | -1.37615 | 15732 ft | 330 kts | 28° |
| 2026-05-05 11:36 | 50.55081 | -1.35957 | 15480 ft | 328 kts | 28° |
| 2026-05-05 11:36 | 50.57099 | -1.34307 | 15234 ft | 326 kts | 28° |
| 2026-05-05 11:36 | 50.59087 | -1.32680 | 14987 ft | 326 kts | 28° |
| 2026-05-05 11:36 | 50.61088 | -1.31038 | 14742 ft | 324 kts | 28° |
| 2026-05-05 11:37 | 50.63085 | -1.29402 | 14494 ft | 323 kts | 28° |
| 2026-05-05 11:37 | 50.65075 | -1.27774 | 14247 ft | 321 kts | 28° |
| 2026-05-05 11:37 | 50.67050 | -1.26159 | 14010 ft | 319 kts | 28° |
| 2026-05-05 11:37 | 50.69018 | -1.24546 | 13766 ft | 318 kts | 28° |
| 2026-05-05 11:38 | 50.70974 | -1.22940 | 13501 ft | 316 kts | 28° |
| 2026-05-05 11:38 | 50.72921 | -1.21339 | 13234 ft | 316 kts | 28° |
| 2026-05-05 11:38 | 50.74869 | -1.19734 | 13007 ft | 314 kts | 28° |
| 2026-05-05 11:38 | 50.76804 | -1.18142 | 12967 ft | 313 kts | 28° |
| 2026-05-05 11:39 | 50.78742 | -1.16545 | 12976 ft | 315 kts | 28° |
| 2026-05-05 11:39 | 50.80683 | -1.14942 | 12976 ft | 313 kts | 28° |
| 2026-05-05 11:39 | 50.82613 | -1.13327 | 12974 ft | 314 kts | 30° |
| 2026-05-05 11:39 | 50.84330 | -1.11208 | 12973 ft | 314 kts | 42° |
| 2026-05-05 11:40 | 50.85936 | -1.08933 | 12971 ft | 313 kts | 42° |
| 2026-05-05 11:40 | 50.87563 | -1.06626 | 12831 ft | 315 kts | 41° |
| 2026-05-05 11:40 | 50.89184 | -1.04324 | 12570 ft | 312 kts | 41° |
| 2026-05-05 11:40 | 50.90797 | -1.02024 | 12309 ft | 312 kts | 41° |
| 2026-05-05 11:41 | 50.92412 | -0.99717 | 12051 ft | 311 kts | 41° |
| 2026-05-05 11:41 | 50.94016 | -0.97427 | 11796 ft | 310 kts | 41° |
| 2026-05-05 11:41 | 50.95616 | -0.95143 | 11542 ft | 310 kts | 41° |
| 2026-05-05 11:41 | 50.97214 | -0.92861 | 11293 ft | 308 kts | 42° |
| 2026-05-05 11:42 | 50.98809 | -0.90585 | 11038 ft | 308 kts | 42° |
| 2026-05-05 11:42 | 51.00399 | -0.88302 | 10790 ft | 308 kts | 42° |
| 2026-05-05 11:42 | 51.01987 | -0.86019 | 10545 ft | 307 kts | 42° |
| 2026-05-05 11:42 | 51.03570 | -0.83745 | 10303 ft | 307 kts | 42° |
| 2026-05-05 11:43 | 51.05135 | -0.81500 | 10067 ft | 306 kts | 42° |
| 2026-05-05 11:43 | 51.06698 | -0.79257 | 9869 ft | 296 kts | 42° |
| 2026-05-05 11:43 | 51.08192 | -0.77106 | 9740 ft | 286 kts | 42° |
| 2026-05-05 11:43 | 51.09658 | -0.74988 | 9612 ft | 283 kts | 42° |
| 2026-05-05 11:44 | 51.11146 | -0.72947 | 9461 ft | 282 kts | 35° |
| 2026-05-05 11:44 | 51.12947 | -0.71817 | 9074 ft | 280 kts | 8° |
| 2026-05-05 11:44 | 51.14884 | -0.71968 | 8651 ft | 279 kts | 352° |
| 2026-05-05 11:44 | 51.16782 | -0.72460 | 8397 ft | 271 kts | 351° |
| 2026-05-05 11:45 | 51.18606 | -0.72950 | 8266 ft | 261 kts | 351° |
| 2026-05-05 11:45 | 51.20363 | -0.73431 | 8139 ft | 252 kts | 351° |
| 2026-05-05 11:45 | 51.22063 | -0.73906 | 7968 ft | 246 kts | 351° |
| 2026-05-05 11:45 | 51.23737 | -0.74378 | 7690 ft | 244 kts | 351° |
| 2026-05-05 11:46 | 51.25378 | -0.75039 | 7380 ft | 243 kts | 342° |
| 2026-05-05 11:46 | 51.26967 | -0.75928 | 7070 ft | 242 kts | 341° |
| 2026-05-05 11:46 | 51.28552 | -0.76850 | 6767 ft | 241 kts | 341° |
| 2026-05-05 11:46 | 51.30127 | -0.77776 | 6465 ft | 240 kts | 341° |
| 2026-05-05 11:47 | 51.31694 | -0.78702 | 6144 ft | 239 kts | 341° |
| 2026-05-05 11:47 | 51.33245 | -0.79622 | 5826 ft | 238 kts | 341° |
| 2026-05-05 11:47 | 51.34811 | -0.80403 | 5510 ft | 234 kts | 354° |
| 2026-05-05 11:47 | 51.36415 | -0.80568 | 5206 ft | 230 kts | 1° |
| 2026-05-05 11:48 | 51.39561 | -0.80704 | 4559 ft | 226 kts | 1° |
| 2026-05-05 11:48 | 51.41115 | -0.80758 | 4375 ft | 218 kts | 1° |
| 2026-05-05 11:48 | 51.42599 | -0.80805 | 4246 ft | 209 kts | 1° |
| 2026-05-05 11:49 | 51.43952 | -0.80324 | 4111 ft | 196 kts | 32° |
| 2026-05-05 11:49 | 51.44842 | -0.78759 | 3937 ft | 190 kts | 57° |
| 2026-05-05 11:49 | 51.45498 | -0.76906 | 3648 ft | 192 kts | 60° |
| 2026-05-05 11:49 | 51.46124 | -0.75008 | 3401 ft | 192 kts | 61° |
| 2026-05-05 11:50 | 51.46728 | -0.73118 | 3187 ft | 189 kts | 61° |
| 2026-05-05 11:50 | 51.47312 | -0.71276 | 3052 ft | 182 kts | 61° |
| 2026-05-05 11:50 | 51.47650 | -0.69306 | 2732 ft | 189 kts | 85° |
| 2026-05-05 11:50 | 51.47658 | -0.67207 | 2450 ft | 189 kts | 86° |
| 2026-05-05 11:51 | 51.47668 | -0.65107 | 2177 ft | 188 kts | 86° |
| 2026-05-05 11:51 | 51.47679 | -0.63012 | 1913 ft | 188 kts | 87° |
| 2026-05-05 11:51 | 51.47688 | -0.60997 | 1679 ft | 173 kts | 87° |
| 2026-05-05 11:51 | 51.47697 | -0.59161 | 1447 ft | 152 kts | 86° |
| 2026-05-05 11:52 | 51.47704 | -0.57612 | 1241 ft | 127 kts | 85° |
| 2026-05-05 11:52 | 51.47712 | -0.56279 | 1070 ft | 115 kts | 84° |
| 2026-05-05 11:52 | 51.47718 | -0.55016 | 927 ft | 112 kts | 86° |
| 2026-05-05 11:52 | 51.47725 | -0.53790 | 767 ft | 109 kts | 86° |
| 2026-05-05 11:53 | 51.47731 | -0.52567 | 638 ft | 110 kts | 87° |
| 2026-05-05 11:53 | 51.47727 | -0.51356 | 478 ft | 109 kts | 87° |
| 2026-05-05 11:53 | 51.47732 | -0.50141 | 335 ft | 109 kts | 86° |
| 2026-05-05 11:53 | 51.47740 | -0.48956 | 170 ft | 106 kts | 83° |
| 2026-05-05 11:54 | 51.47761 | -0.47818 | 86 ft | 94 kts | 90° |
| 2026-05-05 11:54 | 51.47748 | -0.47209 | 87 ft | 29 kts | 112° |
| 2026-05-05 11:54 | 51.47626 | -0.47028 | 87 ft | 13 kts | 153° |
| 2026-05-05 11:54 | 51.47583 | -0.47059 | 87 ft | 10 kts | 264° |
| 2026-05-05 11:55 | 51.47582 | -0.47203 | 89 ft | 16 kts | 271° |
| 2026-05-05 11:55 | 51.47583 | -0.47326 | 88 ft | 4 kts | 269° |
| 2026-05-05 11:55 | 51.47582 | -0.47406 | 86 ft | 10 kts | 268° |
| 2026-05-05 11:55 | 51.47580 | -0.47544 | 88 ft | 15 kts | 269° |
| 2026-05-05 11:56 | 51.47578 | -0.47715 | 87 ft | 12 kts | 269° |
| 2026-05-05 11:56 | 51.47577 | -0.47854 | 86 ft | 15 kts | 269° |
| 2026-05-05 11:56 | 51.47577 | -0.48053 | 87 ft | 21 kts | 271° |
| 2026-05-05 11:56 | 51.47578 | -0.48274 | 87 ft | 17 kts | 269° |
| 2026-05-05 11:57 | 51.47572 | -0.48434 | 87 ft | 10 kts | 248° |
| 2026-05-05 11:57 | 51.47497 | -0.48473 | 88 ft | 13 kts | 183° |
| 2026-05-05 11:57 | 51.47435 | -0.48474 | 86 ft | 7 kts | 180° |
| 2026-05-05 11:57 | 51.47399 | -0.48490 | 86 ft | 4 kts | 237° |
| 2026-05-05 11:58 | 51.47399 | -0.48521 | 86 ft | 2 kts | 274° |
| 2026-05-05 11:58 | 51.47400 | -0.48545 | 86 ft | 3 kts | 271° |
| 2026-05-05 11:58 | 51.47400 | -0.48572 | 86 ft | 2 kts | 270° |
| 2026-05-05 11:58 | 51.47400 | -0.48589 | 86 ft | 0 kts | 270° |